Time;durP1;ratioP1;P1;durP2;ratioP2;P2;SDS_P1;SDS_P2;PMS_P1;PMS_P2;Temp;Humidity;BMP_temperature;BMP_pressure;BME280_temperature;BME280_humidity;BME280_pressure;Samples;Min_cycle;Max_cycle;Signal;HPM_P1;HPM_P2
2023/09/07 00:01:30;;;;;;;16.95;13.20;;;;;;;22.14;100.00;100282.16;5126316;27;20050;-63
2023/09/07 00:03:56;;;;;;;16.58;14.10;;;;;;;22.09;100.00;100273.06;5124025;27;20056;-63
2023/09/07 00:06:21;;;;;;;18.95;14.95;;;;;;;22.10;100.00;100272.03;5124733;27;20043;-63
2023/09/07 00:08:47;;;;;;;18.70;14.82;;;;;;;22.12;100.00;100268.06;5121175;27;20039;-63
2023/09/07 00:11:13;;;;;;;17.88;14.43;;;;;;;22.21;100.00;100266.72;5121132;27;20023;-63
2023/09/07 00:13:38;;;;;;;20.83;14.43;;;;;;;22.19;100.00;100271.50;5124574;27;20198;-63
2023/09/07 00:16:04;;;;;;;20.02;15.02;;;;;;;22.14;100.00;100276.75;5128078;27;20027;-63
2023/09/07 00:18:31;;;;;;;20.63;14.18;;;;;;;22.02;100.00;100259.63;5123266;27;20329;-63
2023/09/07 00:20:56;;;;;;;17.08;13.85;;;;;;;21.99;100.00;100271.69;5121501;27;20035;-63
2023/09/07 00:23:22;;;;;;;18.70;13.80;;;;;;;21.99;100.00;100270.88;5123107;27;20039;-63
2023/09/07 00:25:48;;;;;;;17.02;12.90;;;;;;;21.95;100.00;100270.50;5124696;27;20037;-64
2023/09/07 00:28:14;;;;;;;17.52;12.98;;;;;;;21.94;100.00;100268.84;5123902;27;20042;-64
2023/09/07 00:30:40;;;;;;;16.65;13.00;;;;;;;21.89;100.00;100275.94;5121544;27;20088;-64
2023/09/07 00:33:06;;;;;;;16.65;11.90;;;;;;;21.85;100.00;100277.44;5121451;27;20047;-65
2023/09/07 00:35:31;;;;;;;15.35;11.45;;;;;;;21.89;100.00;100279.47;5124481;27;20031;-64
2023/09/07 00:37:57;;;;;;;16.98;12.20;;;;;;;21.98;100.00;100277.31;5122741;27;20035;-64
2023/09/07 00:40:23;;;;;;;15.73;12.07;;;;;;;21.96;100.00;100274.84;5104416;27;20043;-64
2023/09/07 00:42:48;;;;;;;18.05;12.80;;;;;;;21.99;100.00;100270.88;5123357;27;20031;-64
2023/09/07 00:45:15;;;;;;;15.15;11.57;;;;;;;21.92;100.00;100272.81;5122249;27;20035;-64
2023/09/07 00:47:41;;;;;;;15.20;10.48;;;;;;;21.92;100.00;100270.94;5120044;27;20032;-64
2023/09/07 00:50:07;;;;;;;14.35;10.38;;;;;;;21.89;100.00;100276.78;5119324;27;20032;-64
2023/09/07 00:52:34;;;;;;;15.35;10.68;;;;;;;21.85;100.00;100277.44;5120606;27;20091;-64
2023/09/07 00:55:01;;;;;;;13.45;10.57;;;;;;;21.71;100.00;100275.91;5121288;27;20033;-64
2023/09/07 00:57:26;;;;;;;11.55;9.00;;;;;;;21.64;100.00;100279.47;5122324;27;20063;-65
2023/09/07 00:59:52;;;;;;;13.35;9.65;;;;;;;21.66;100.00;100279.25;5120120;27;20423;-64
2023/09/07 01:02:18;;;;;;;13.20;9.38;;;;;;;21.82;100.00;100275.16;5124437;27;20096;-64
2023/09/07 01:04:43;;;;;;;11.13;9.25;;;;;;;21.80;100.00;100271.88;5121221;27;20092;-64
2023/09/07 01:07:14;;;;;;;13.68;9.07;;;;;;;21.92;100.00;100270.13;5120893;27;20039;-64
2023/09/07 01:09:41;;;;;;;12.90;9.00;;;;;;;21.83;100.00;100258.75;5120888;27;20077;-64
2023/09/07 01:12:12;;;;;;;13.77;9.48;;;;;;;21.71;100.00;100267.81;5123702;27;20233;-64
2023/09/07 01:14:38;;;;;;;11.20;9.00;;;;;;;21.82;100.00;100256.28;5122022;27;20048;-64
2023/09/07 01:17:04;;;;;;;14.35;9.75;;;;;;;21.91;100.00;100253.13;5120295;27;20320;-64
2023/09/07 01:19:30;;;;;;;12.48;8.68;;;;;;;21.83;100.00;100255.25;5118842;27;20069;-64
2023/09/07 01:21:56;;;;;;;13.23;8.82;;;;;;;21.83;100.00;100261.47;5120649;28;20083;-65
2023/09/07 01:24:24;;;;;;;10.48;8.73;;;;;;;21.85;100.00;100251.31;5123692;28;20051;-64
2023/09/07 01:26:50;;;;;;;9.45;8.15;;;;;;;21.89;100.00;100251.69;5120301;28;20027;-65
2023/09/07 01:29:19;;;;;;;11.63;8.50;;;;;;;21.79;100.00;100254.03;5125064;27;20078;-65
2023/09/07 01:31:45;;;;;;;13.43;7.55;;;;;;;21.73;100.00;100246.84;5124102;28;20035;-64
2023/09/07 01:34:11;;;;;;;11.95;8.50;;;;;;;21.88;100.00;100252.75;5125564;27;20042;-64
2023/09/07 01:36:37;;;;;;;10.95;8.35;;;;;;;21.96;99.42;100249.75;5125307;27;20027;-64
2023/09/07 01:39:05;;;;;;;10.07;7.57;;;;;;;21.95;98.60;100257.00;5127280;27;20362;-64
2023/09/07 01:41:31;;;;;;;9.93;8.07;;;;;;;21.93;98.36;100258.28;5128434;27;20098;-65
2023/09/07 01:43:57;;;;;;;9.20;6.93;;;;;;;21.91;98.34;100260.38;5125076;27;20217;-64
2023/09/07 01:46:22;;;;;;;11.07;7.05;;;;;;;21.89;98.09;100255.22;5125511;27;20027;-64
2023/09/07 01:48:48;;;;;;;9.25;7.20;;;;;;;21.88;97.68;100260.81;5124519;27;20079;-64
2023/09/07 01:51:13;;;;;;;10.95;6.97;;;;;;;21.87;97.83;100261.88;5126795;27;20073;-65
2023/09/07 01:53:39;;;;;;;8.82;7.15;;;;;;;21.91;97.35;100263.06;5123613;27;20035;-64
2023/09/07 01:56:04;;;;;;;8.80;7.57;;;;;;;21.85;97.45;100269.34;5127296;27;20030;-64
2023/09/07 01:58:30;;;;;;;13.27;7.50;;;;;;;21.90;97.58;100264.94;5124532;27;20031;-64
2023/09/07 02:00:59;;;;;;;10.20;6.93;;;;;;;21.93;96.69;100258.28;5121438;27;20035;-65
2023/09/07 02:03:25;;;;;;;8.07;6.32;;;;;;;21.99;96.45;100262.78;5126697;27;20043;-64
2023/09/07 02:05:52;;;;;;;10.60;6.63;;;;;;;22.03;95.96;100261.31;5123923;27;20333;-65
2023/09/07 02:08:18;;;;;;;7.80;6.07;;;;;;;22.09;95.06;100268.50;5125919;27;20031;-64
2023/09/07 02:10:43;;;;;;;7.35;6.30;;;;;;;22.15;94.84;100261.38;5123971;27;20045;-64
2023/09/07 02:13:09;;;;;;;7.45;6.45;;;;;;;22.16;94.91;100263.03;5122440;27;20606;-64
2023/09/07 02:15:38;;;;;;;10.82;6.20;;;;;;;22.17;94.46;100265.50;5125161;27;20031;-64
2023/09/07 02:18:05;;;;;;;7.20;5.85;;;;;;;22.16;94.11;100265.72;5125492;27;20368;-64
2023/09/07 02:20:32;;;;;;;7.05;6.35;;;;;;;22.18;94.00;100269.03;5125144;27;20036;-64
2023/09/07 02:22:58;;;;;;;7.25;6.10;;;;;;;22.19;94.14;100273.38;5124979;27;20730;-64
2023/09/07 02:25:24;;;;;;;8.30;6.50;;;;;;;22.18;94.10;100269.03;5122953;27;20031;-64
2023/09/07 02:27:49;;;;;;;8.55;6.20;;;;;;;22.19;93.82;100278.78;5126326;27;20027;-64
2023/09/07 02:30:15;;;;;;;7.82;6.78;;;;;;;22.20;94.02;100269.63;5125482;27;20102;-64
2023/09/07 02:32:43;;;;;;;10.70;6.38;;;;;;;22.19;94.31;100276.06;5124423;27;20039;-64
2023/09/07 02:35:09;;;;;;;7.60;6.55;;;;;;;22.06;94.69;100268.13;5127545;27;20023;-64
2023/09/07 02:37:38;;;;;;;8.48;6.45;;;;;;;21.92;95.94;100273.63;5122582;27;20035;-65
2023/09/07 02:40:10;;;;;;;7.93;7.20;;;;;;;21.86;97.26;100273.69;5121145;27;20032;-64
2023/09/07 02:42:36;;;;;;;11.70;9.65;;;;;;;21.65;98.41;100270.34;5123935;27;20637;-64
2023/09/07 02:45:01;;;;;;;11.25;9.20;;;;;;;21.65;99.51;100270.34;5126135;27;20091;-64
2023/09/07 02:47:27;;;;;;;11.45;8.45;;;;;;;21.73;99.18;100271.94;5126137;27;20039;-64
2023/09/07 02:49:52;;;;;;;9.88;8.32;;;;;;;21.78;98.83;100266.69;5122728;27;20044;-64
2023/09/07 02:52:18;;;;;;;11.27;8.80;;;;;;;21.72;99.11;100264.06;5125927;27;20038;-64
2023/09/07 02:54:43;;;;;;;10.65;8.57;;;;;;;21.72;99.13;100269.47;5121166;27;20036;-64
2023/09/07 02:57:09;;;;;;;12.80;10.35;;;;;;;21.70;99.80;100271.53;5132015;27;20313;-64
2023/09/07 02:59:34;;;;;;;15.55;9.65;;;;;;;21.70;100.00;100264.28;5123026;27;20526;-64
2023/09/07 03:02:00;;;;;;;11.77;9.52;;;;;;;21.60;100.00;100245.94;5123612;27;20038;-64
2023/09/07 03:04:26;;;;;;;12.73;9.77;;;;;;;21.73;100.00;100263.84;5124936;27;20366;-64
2023/09/07 03:06:51;;;;;;;10.93;9.43;;;;;;;21.64;100.00;100271.38;5123933;27;20345;-64
2023/09/07 03:09:17;;;;;;;13.50;10.38;;;;;;;21.58;100.00;100274.16;5125789;27;20043;-64
2023/09/07 03:11:42;;;;;;;12.07;10.15;;;;;;;21.49;100.00;100281.69;5126822;27;20389;-65
2023/09/07 03:14:08;;;;;;;14.88;10.30;;;;;;;21.47;100.00;100275.69;5128726;27;20375;-64
2023/09/07 03:16:34;;;;;;;14.23;10.70;;;;;;;21.55;100.00;100288.88;5127308;27;20317;-64
2023/09/07 03:18:59;;;;;;;13.32;9.98;;;;;;;21.62;100.00;100280.75;5124970;27;20038;-64
2023/09/07 03:21:29;;;;;;;13.02;10.32;;;;;;;21.65;100.00;100285.69;5122513;27;20045;-64
2023/09/07 03:23:55;;;;;;;12.23;10.93;;;;;;;21.66;100.00;100281.94;5122431;27;20035;-64
2023/09/07 03:26:21;;;;;;;13.20;10.48;;;;;;;21.55;100.00;100283.50;5125981;27;20044;-64
2023/09/07 03:28:46;;;;;;;12.77;9.95;;;;;;;21.55;100.00;100288.06;5124184;27;20344;-64
2023/09/07 03:31:12;;;;;;;14.32;11.32;;;;;;;21.52;100.00;100286.63;5124488;27;20031;-64
2023/09/07 03:33:37;;;;;;;14.23;10.50;;;;;;;21.45;100.00;100290.44;5124851;27;20106;-64
2023/09/07 03:36:03;;;;;;;13.07;10.05;;;;;;;21.32;99.88;100285.97;5120773;27;20034;-64
2023/09/07 03:38:29;;;;;;;14.68;9.75;;;;;;;21.13;100.00;100295.81;5122573;27;20036;-64
2023/09/07 03:40:55;;;;;;;10.75;9.55;;;;;;;20.95;100.00;100284.94;5125072;27;20050;-64
2023/09/07 03:43:21;;;;;;;14.82;11.07;;;;;;;20.90;100.00;100295.53;5122708;27;20309;-64
2023/09/07 03:45:46;;;;;;;14.65;10.93;;;;;;;20.81;100.00;100286.88;5126008;27;20077;-64
2023/09/07 03:48:12;;;;;;;13.32;11.20;;;;;;;20.92;100.00;100291.59;5124302;27;20327;-64
2023/09/07 03:50:37;;;;;;;14.48;11.00;;;;;;;20.78;100.00;100295.38;5123302;27;20039;-64
2023/09/07 03:53:03;;;;;;;14.95;11.25;;;;;;;20.56;100.00;100297.53;5125479;27;20403;-64
2023/09/07 03:55:29;;;;;;;14.05;11.20;;;;;;;20.37;100.00;100293.03;5124204;27;20027;-63
2023/09/07 03:57:54;;;;;;;14.75;10.75;;;;;;;20.24;100.00;100299.28;5120509;27;20099;-64
2023/09/07 04:00:20;;;;;;;13.43;10.77;;;;;;;20.40;100.00;100296.16;5124860;27;20046;-64
2023/09/07 04:02:45;;;;;;;17.30;11.43;;;;;;;20.58;100.00;100300.84;5123424;27;20024;-64
2023/09/07 04:05:11;;;;;;;15.02;11.30;;;;;;;20.60;100.00;100296.06;5105645;27;20070;-64
2023/09/07 04:07:38;;;;;;;15.18;10.82;;;;;;;20.29;100.00;100309.41;5124504;27;20232;-64
2023/09/07 04:10:04;;;;;;;17.27;13.23;;;;;;;20.32;100.00;100296.38;5123026;27;20027;-64
2023/09/07 04:12:31;;;;;;;19.45;12.57;;;;;;;20.46;100.00;100299.88;5120686;27;20088;-64
2023/09/07 04:14:56;;;;;;;23.60;13.73;;;;;;;20.66;100.00;100302.47;5125348;27;20032;-64
2023/09/07 04:17:22;;;;;;;18.35;12.70;;;;;;;20.78;100.00;100308.00;5130777;27;20047;-64
2023/09/07 04:19:47;;;;;;;16.83;11.23;;;;;;;20.88;100.00;100305.69;5122785;27;20027;-64
2023/09/07 04:22:13;;;;;;;16.00;12.90;;;;;;;20.95;100.00;100307.31;5122060;27;20364;-64
2023/09/07 04:24:38;;;;;;;15.30;11.90;;;;;;;21.03;100.00;100307.06;5124275;27;20376;-64
2023/09/07 04:27:04;;;;;;;14.55;11.88;;;;;;;21.00;100.00;100312.88;5128092;27;20038;-64
2023/09/07 04:29:30;;;;;;;16.20;12.57;;;;;;;21.12;100.00;100313.00;5123529;27;20061;-64
2023/09/07 04:31:56;;;;;;;19.65;12.77;;;;;;;21.24;100.00;100310.47;5137303;27;20302;-64
2023/09/07 04:34:22;;;;;;;16.20;12.30;;;;;;;21.35;100.00;100309.78;5138575;27;20035;-63
2023/09/07 04:36:48;;;;;;;19.45;13.18;;;;;;;21.43;100.00;100309.50;5138359;27;20031;-64
2023/09/07 04:39:17;;;;;;;20.13;12.88;;;;;;;21.51;100.00;100319.19;5138962;27;20043;-64
2023/09/07 04:41:42;;;;;;;20.85;13.43;;;;;;;21.46;100.00;100303.69;5139984;27;20077;-64
2023/09/07 04:44:08;;;;;;;20.60;14.15;;;;;;;21.52;100.00;100318.13;5139042;27;20098;-65
2023/09/07 04:46:33;;;;;;;19.15;14.00;;;;;;;21.63;100.00;100320.13;5139987;27;20034;-64
2023/09/07 04:48:59;;;;;;;19.00;14.15;;;;;;;21.71;100.00;100325.22;5139179;27;20030;-64
2023/09/07 04:51:25;;;;;;;20.10;13.63;;;;;;;21.72;100.00;100320.66;5139447;27;20031;-64
2023/09/07 04:53:51;;;;;;;17.75;12.73;;;;;;;21.67;100.00;100319.47;5139313;27;20035;-65
2023/09/07 04:56:17;;;;;;;19.88;14.07;;;;;;;21.80;100.00;100325.78;5139758;27;20039;-64
2023/09/07 04:58:42;;;;;;;21.15;14.40;;;;;;;21.85;100.00;100316.00;5138707;27;20346;-64
2023/09/07 05:01:09;;;;;;;18.90;13.02;;;;;;;21.87;100.00;100322.00;5135749;27;20058;-64
2023/09/07 05:03:36;;;;;;;20.45;13.32;;;;;;;21.93;100.00;100325.69;5123578;27;20050;-63
2023/09/07 05:06:05;;;;;;;17.75;13.45;;;;;;;21.95;100.00;100331.69;5119275;27;20032;-64
2023/09/07 05:08:31;;;;;;;20.42;13.85;;;;;;;21.95;100.00;100321.72;5123079;27;20031;-64
2023/09/07 05:11:02;;;;;;;24.35;16.73;;;;;;;22.01;100.00;100328.09;5118794;27;20035;-64
2023/09/07 05:13:28;;;;;;;24.55;18.27;;;;;;;22.08;100.00;100333.47;5120814;27;20035;-64
2023/09/07 05:15:55;;;;;;;28.08;18.88;;;;;;;22.07;100.00;100329.09;5119964;27;20407;-64
2023/09/07 05:18:22;;;;;;;24.83;17.48;;;;;;;22.04;100.00;100326.84;5124126;27;20099;-64
2023/09/07 05:20:49;;;;;;;20.80;15.23;;;;;;;22.08;100.00;100338.84;5122068;27;20383;-64
2023/09/07 05:23:17;;;;;;;22.45;14.70;;;;;;;22.13;100.00;100334.44;5122917;27;20050;-64
2023/09/07 05:25:47;;;;;;;22.15;14.40;;;;;;;22.20;100.00;100332.50;5122084;27;20101;-64
2023/09/07 05:28:14;;;;;;;20.33;13.75;;;;;;;22.23;100.00;100332.03;5121367;28;20056;-64
2023/09/07 05:30:41;;;;;;;18.85;13.68;;;;;;;22.34;100.00;100326.94;5122462;27;20083;-64
2023/09/07 05:33:06;;;;;;;18.00;13.13;;;;;;;22.57;100.00;100327.09;5119464;27;20050;-64
2023/09/07 05:35:32;;;;;;;17.85;13.15;;;;;;;22.71;100.00;100320.47;5120207;28;20031;-64
2023/09/07 05:37:58;;;;;;;18.65;13.38;;;;;;;22.97;100.00;100329.34;5124971;28;20205;-64
2023/09/07 05:40:24;;;;;;;18.75;13.25;;;;;;;23.11;100.00;100330.81;5127064;28;20058;-64
2023/09/07 05:42:50;;;;;;;18.85;13.75;;;;;;;23.21;100.00;100333.78;5120603;28;20332;-64
2023/09/07 05:45:15;;;;;;;16.27;13.05;;;;;;;23.22;100.00;100321.91;5119038;28;20023;-64
2023/09/07 05:47:41;;;;;;;18.52;15.23;;;;;;;23.27;100.00;100327.44;5123221;28;20333;-64
2023/09/07 05:50:07;;;;;;;18.05;14.10;;;;;;;23.23;100.00;100321.69;5122494;28;20045;-63
2023/09/07 05:52:32;;;;;;;19.52;13.88;;;;;;;23.08;100.00;100313.19;5119108;28;20380;-64
2023/09/07 05:54:58;;;;;;;19.38;13.77;;;;;;;22.91;100.00;100315.69;5121441;27;20326;-65
2023/09/07 05:57:23;;;;;;;19.13;14.35;;;;;;;22.81;100.00;100309.16;5119894;28;20043;-63
2023/09/07 05:59:49;;;;;;;17.65;13.52;;;;;;;22.70;100.00;100307.22;5122718;27;20080;-64
2023/09/07 06:02:14;;;;;;;17.60;14.40;;;;;;;22.51;100.00;100315.34;5119150;28;20047;-64
2023/09/07 06:04:40;;;;;;;18.35;15.48;;;;;;;22.56;100.00;100311.94;5102500;28;20080;-64
2023/09/07 06:07:05;;;;;;;18.75;14.20;;;;;;;22.56;100.00;100317.34;5121857;28;20046;-64
2023/09/07 06:09:31;;;;;;;18.85;14.45;;;;;;;22.65;100.00;100316.00;5122880;28;20082;-64
2023/09/07 06:11:56;;;;;;;21.67;14.75;;;;;;;22.75;100.00;100323.53;5122775;28;20035;-64
2023/09/07 06:14:22;;;;;;;18.85;14.27;;;;;;;22.82;100.00;100321.63;5120019;28;20347;-64
2023/09/07 06:16:47;;;;;;;17.73;13.35;;;;;;;23.10;100.00;100321.06;5119194;28;20076;-64
2023/09/07 06:19:13;;;;;;;18.08;13.38;;;;;;;23.41;100.00;100330.78;5121822;27;20050;-64
2023/09/07 06:21:38;;;;;;;18.80;13.68;;;;;;;23.63;100.00;100340.00;5129489;27;20028;-64
2023/09/07 06:24:06;;;;;;;18.30;14.20;;;;;;;23.86;100.00;100334.63;5124880;27;20046;-63
2023/09/07 06:26:31;;;;;;;16.52;13.95;;;;;;;24.14;100.00;100333.13;5124668;27;20043;-64
2023/09/07 06:28:57;;;;;;;19.52;13.25;;;;;;;24.37;100.00;100330.41;5126799;27;20269;-65
2023/09/07 06:31:22;;;;;;;19.05;13.80;;;;;;;24.48;100.00;100329.56;5123736;27;20361;-64
2023/09/07 06:33:48;;;;;;;18.08;12.80;;;;;;;24.65;98.25;100329.63;5125864;27;20229;-65
2023/09/07 06:36:13;;;;;;;19.27;12.55;;;;;;;24.94;98.14;100338.59;5125623;27;20031;-64
2023/09/07 06:38:39;;;;;;;16.33;13.07;;;;;;;25.11;96.57;100336.81;5123069;27;20039;-63
2023/09/07 06:41:07;;;;;;;17.10;12.85;;;;;;;24.90;95.72;100337.44;5123129;27;20041;-64
2023/09/07 06:43:33;;;;;;;21.65;12.55;;;;;;;24.89;97.12;100337.69;5126254;27;20047;-64
2023/09/07 06:46:08;;;;;;;17.17;12.73;;;;;;;24.82;97.44;100335.94;5127040;27;20043;-62
2023/09/07 06:48:34;;;;;;;16.90;13.05;;;;;;;24.86;98.17;100338.16;5124064;27;20072;-62
2023/09/07 06:51:03;;;;;;;16.95;12.95;;;;;;;24.89;96.62;100333.06;5124373;27;20043;-64
2023/09/07 06:53:29;;;;;;;16.50;13.30;;;;;;;24.92;97.37;100345.31;5124522;27;20040;-64
2023/09/07 06:55:59;;;;;;;17.73;11.80;;;;;;;25.17;94.20;100347.75;5125624;27;20035;-64
2023/09/07 06:58:25;;;;;;;15.73;12.32;;;;;;;25.20;93.82;100347.25;5123959;27;20035;-64
2023/09/07 07:00:50;;;;;;;14.23;10.52;;;;;;;25.17;91.88;100340.44;5126238;27;20039;-64
2023/09/07 07:03:16;;;;;;;11.35;10.15;;;;;;;25.12;89.48;100349.28;5132860;27;20050;-64
2023/09/07 07:05:42;;;;;;;12.57;10.60;;;;;;;24.94;90.64;100346.72;5126146;27;21055;-64
2023/09/07 07:08:07;;;;;;;13.38;9.98;;;;;;;24.84;90.93;100343.81;5122535;27;20138;-64
2023/09/07 07:10:33;;;;;;;14.73;10.52;;;;;;;24.81;90.69;100345.13;5124001;27;20046;-64
2023/09/07 07:12:58;;;;;;;11.40;9.93;;;;;;;24.88;90.76;100341.44;5120628;27;20358;-64
2023/09/07 07:15:24;;;;;;;11.60;8.82;;;;;;;24.87;89.73;100337.09;5126503;27;20344;-64
2023/09/07 07:17:49;;;;;;;11.38;9.18;;;;;;;24.96;88.54;100344.59;5124323;27;20043;-64
2023/09/07 07:20:14;;;;;;;14.02;9.85;;;;;;;25.31;87.18;100341.78;5128378;27;20031;-64
2023/09/07 07:22:40;;;;;;;13.35;9.20;;;;;;;25.71;85.37;100343.56;5125477;27;20044;-64
2023/09/07 07:25:05;;;;;;;11.60;8.93;;;;;;;26.03;84.34;100341.91;5122487;27;20225;-64
2023/09/07 07:27:32;;;;;;;10.68;7.55;;;;;;;26.31;80.79;100343.66;5121193;27;20306;-63
2023/09/07 07:29:57;;;;;;;8.38;7.25;;;;;;;26.53;77.17;100341.00;5122341;27;20035;-64
2023/09/07 07:32:22;;;;;;;11.63;7.20;;;;;;;26.74;75.22;100339.34;5125239;27;20048;-64
2023/09/07 07:34:49;;;;;;;8.85;7.32;;;;;;;26.70;76.61;100330.88;5124802;27;20080;-64
2023/09/07 07:37:14;;;;;;;8.38;6.72;;;;;;;26.51;75.19;100339.59;5124525;27;20237;-63
2023/09/07 07:39:40;;;;;;;8.95;7.82;;;;;;;26.55;75.98;100343.47;5126329;27;20172;-64
2023/09/07 07:42:06;;;;;;;9.40;7.70;;;;;;;26.48;76.32;100337.41;5126943;27;20294;-64
2023/09/07 07:44:31;;;;;;;8.48;7.03;;;;;;;26.30;76.11;100347.44;5122551;27;20326;-64
2023/09/07 07:46:57;;;;;;;11.70;6.95;;;;;;;26.22;73.64;100344.34;5131243;27;20054;-64
2023/09/07 07:49:22;;;;;;;10.82;7.63;;;;;;;26.02;75.23;100342.16;5125824;27;20042;-64
2023/09/07 07:51:48;;;;;;;7.97;7.00;;;;;;;26.09;76.38;100345.53;5126013;27;20079;-64
2023/09/07 07:54:13;;;;;;;9.40;7.32;;;;;;;26.19;75.27;100350.28;5122478;27;20080;-64
2023/09/07 07:56:39;;;;;;;7.88;7.18;;;;;;;26.12;73.88;100353.16;5127062;27;20022;-63
2023/09/07 07:59:05;;;;;;;9.48;7.00;;;;;;;26.07;73.39;100353.91;5126697;27;20228;-64
2023/09/07 08:01:30;;;;;;;8.00;6.82;;;;;;;26.04;71.46;100351.69;5139213;27;20031;-65
2023/09/07 08:03:56;;;;;;;9.13;7.05;;;;;;;26.06;71.66;100343.31;5140053;27;20149;-65
2023/09/07 08:06:21;;;;;;;9.35;6.63;;;;;;;25.99;74.04;100348.06;5139767;27;20043;-63
2023/09/07 08:08:47;;;;;;;22.70;6.63;;;;;;;26.00;71.52;100339.66;5140332;27;20094;-63
2023/09/07 08:11:13;;;;;;;7.70;6.15;;;;;;;26.05;71.30;100342.50;5140241;27;20035;-64
2023/09/07 08:13:39;;;;;;;7.22;6.05;;;;;;;26.17;70.31;100347.00;5139631;27;20053;-63
2023/09/07 08:16:05;;;;;;;8.55;6.10;;;;;;;26.26;71.88;100340.06;5140518;27;20337;-65
2023/09/07 08:18:33;;;;;;;7.18;5.85;;;;;;;26.31;71.79;100338.25;5140000;27;20078;-64
2023/09/07 08:20:59;;;;;;;9.57;6.40;;;;;;;26.36;70.72;100327.47;5139907;27;20035;-64
2023/09/07 08:23:25;;;;;;;11.45;7.45;;;;;;;26.36;70.27;100338.34;5129269;27;20057;-62
2023/09/07 08:25:52;;;;;;;8.38;6.32;;;;;;;26.33;70.21;100338.00;5139373;27;20337;-62
2023/09/07 08:28:18;;;;;;;8.10;5.97;;;;;;;26.27;71.38;100334.38;5139125;27;20047;-62
2023/09/07 08:30:44;;;;;;;9.75;6.22;;;;;;;26.13;70.82;100335.00;5139116;27;20054;-62
2023/09/07 08:33:10;;;;;;;8.93;6.70;;;;;;;26.12;70.40;100331.47;5139270;27;20098;-62
2023/09/07 08:35:37;;;;;;;9.48;6.70;;;;;;;26.16;70.81;100327.16;5140116;27;20340;-62
2023/09/07 08:38:05;;;;;;;8.60;6.10;;;;;;;26.22;69.40;100336.22;5139750;27;20051;-62
2023/09/07 08:40:34;;;;;;;9.77;6.55;;;;;;;26.25;71.25;100331.09;5139785;27;20034;-62
2023/09/07 08:43:03;;;;;;;7.63;6.40;;;;;;;26.23;71.47;100330.53;5139061;27;20277;-62
2023/09/07 08:45:30;;;;;;;8.38;6.28;;;;;;;26.27;70.21;100323.53;5139611;27;20031;-62
2023/09/07 08:47:57;;;;;;;8.48;6.63;;;;;;;26.26;68.60;100324.59;5139085;27;20231;-62
2023/09/07 08:50:23;;;;;;;8.88;5.93;;;;;;;26.13;68.67;100326.84;5139544;27;20034;-62
2023/09/07 08:52:52;;;;;;;7.75;6.30;;;;;;;26.14;68.15;100321.16;5139121;27;20482;-62
2023/09/07 08:55:18;;;;;;;9.05;6.25;;;;;;;26.17;67.03;100323.38;5139062;27;20039;-62
2023/09/07 08:57:43;;;;;;;9.52;6.53;;;;;;;26.18;67.50;100321.50;5138878;27;20049;-62
2023/09/07 09:00:15;;;;;;;8.15;6.90;;;;;;;26.20;70.43;100317.47;5138585;27;20043;-62
2023/09/07 09:02:41;;;;;;;7.32;5.95;;;;;;;26.26;71.58;100318.34;5139003;27;20111;-62
2023/09/07 09:05:09;;;;;;;8.88;6.25;;;;;;;26.26;70.67;100296.63;5138752;27;20047;-62
2023/09/07 09:07:35;;;;;;;8.05;6.80;;;;;;;26.37;71.44;100303.84;5138720;27;20327;-62
2023/09/07 09:10:08;;;;;;;8.75;6.60;;;;;;;26.34;71.54;100302.47;5138653;27;20035;-62
2023/09/07 09:12:34;;;;;;;12.65;8.13;;;;;;;26.48;69.84;100297.47;5138982;27;20035;-63
2023/09/07 09:15:03;;;;;;;7.85;6.13;;;;;;;26.58;68.58;100302.22;5139170;27;20236;-62
2023/09/07 09:17:29;;;;;;;9.00;6.80;;;;;;;26.62;67.38;100301.44;5139098;27;20038;-63
2023/09/07 09:19:55;;;;;;;7.50;5.65;;;;;;;26.68;67.69;100303.16;5138639;27;20038;-62
2023/09/07 09:22:20;;;;;;;8.60;6.22;;;;;;;26.64;68.41;100288.44;5138284;27;20387;-63
2023/09/07 09:24:48;;;;;;;7.22;6.28;;;;;;;26.72;68.18;100287.16;5138844;27;20046;-62
2023/09/07 09:27:13;;;;;;;8.05;6.07;;;;;;;26.78;68.10;100288.84;5137646;28;20324;-62
2023/09/07 09:29:39;;;;;;;8.32;6.07;;;;;;;26.81;68.52;100282.91;5137047;28;20046;-63
2023/09/07 09:32:07;;;;;;;7.82;6.15;;;;;;;26.83;66.49;100280.75;5139157;28;20232;-62
2023/09/07 09:34:34;;;;;;;8.05;5.80;;;;;;;26.88;67.65;100280.81;5138703;28;20049;-62
2023/09/07 09:37:01;;;;;;;6.85;5.82;;;;;;;26.95;66.04;100280.59;5137569;28;20355;-62
2023/09/07 09:39:26;;;;;;;7.22;5.90;;;;;;;26.85;65.76;100275.91;5138600;28;20054;-64
2023/09/07 09:41:55;;;;;;;8.82;5.90;;;;;;;26.87;65.42;100270.19;5138642;28;20328;-64
2023/09/07 09:44:25;;;;;;;8.98;6.38;;;;;;;26.83;66.07;100266.34;5138493;28;20039;-64
2023/09/07 09:46:52;;;;;;;6.88;5.30;;;;;;;26.83;63.71;100260.91;5138702;28;20037;-65
2023/09/07 09:49:20;;;;;;;9.40;5.60;;;;;;;26.87;63.06;100260.16;5138135;28;20084;-65
2023/09/07 09:51:47;;;;;;;6.30;5.25;;;;;;;26.87;61.35;100262.06;5137768;28;20031;-64
2023/09/07 09:54:13;;;;;;;7.95;5.53;;;;;;;26.72;61.96;100260.81;5120383;27;20081;-64
2023/09/07 09:56:39;;;;;;;6.30;5.70;;;;;;;26.73;62.52;100261.63;5143089;27;20035;-64
2023/09/07 09:59:04;;;;;;;9.82;5.72;;;;;;;26.72;61.59;100257.28;5142143;27;20075;-65
2023/09/07 10:01:31;;;;;;;9.73;6.20;;;;;;;26.73;62.74;100254.31;5142129;27;20034;-65
2023/09/07 10:03:57;;;;;;;8.23;5.60;;;;;;;26.83;61.66;100253.59;5142310;27;20035;-64
2023/09/07 10:06:28;;;;;;;7.13;5.30;;;;;;;26.83;61.10;100244.63;5142065;27;20101;-64
2023/09/07 10:09:06;;;;;;;6.43;5.47;;;;;;;26.90;63.40;100250.66;5142410;27;20364;-64
2023/09/07 10:11:34;;;;;;;7.57;5.43;;;;;;;26.94;61.17;100247.19;5136550;27;20058;-64
2023/09/07 10:14:03;;;;;;;6.60;5.47;;;;;;;26.95;62.64;100246.09;5141570;27;20412;-65
2023/09/07 10:16:28;;;;;;;6.03;5.43;;;;;;;26.91;59.04;100242.25;5142817;27;20031;-64
2023/09/07 10:18:54;;;;;;;7.18;5.78;;;;;;;26.87;61.91;100240.31;5142625;27;20031;-64
2023/09/07 10:21:24;;;;;;;8.60;5.80;;;;;;;27.00;64.71;100227.16;5141884;27;20229;-64
2023/09/07 10:23:52;;;;;;;6.88;6.18;;;;;;;27.14;63.27;100233.00;5139938;27;20031;-64
2023/09/07 10:26:20;;;;;;;8.40;5.88;;;;;;;27.25;61.87;100223.84;5142327;27;20031;-64
2023/09/07 10:28:46;;;;;;;11.73;6.53;;;;;;;27.09;60.38;100230.25;5141069;27;20035;-64
2023/09/07 10:31:19;;;;;;;9.95;5.70;;;;;;;27.09;61.24;100230.25;5141887;27;20053;-64
2023/09/07 10:33:46;;;;;;;6.72;6.13;;;;;;;27.07;63.16;100235.13;5142080;27;20046;-64
2023/09/07 10:36:25;;;;;;;9.63;6.22;;;;;;;27.07;63.91;100231.59;5140844;27;20216;-64
2023/09/07 10:38:54;;;;;;;10.55;8.02;;;;;;;27.12;64.73;100224.28;5126095;27;20043;-65
2023/09/07 10:41:20;;;;;;;11.52;6.80;;;;;;;27.22;64.07;100221.66;5129318;27;20030;-64
2023/09/07 10:43:50;;;;;;;9.85;7.20;;;;;;;27.29;62.53;100227.69;5134401;27;20038;-64
2023/09/07 10:46:20;;;;;;;10.13;6.88;;;;;;;27.34;61.10;100230.44;5126214;27;20164;-64
2023/09/07 10:48:48;;;;;;;7.03;6.32;;;;;;;27.27;58.67;100229.84;5124016;27;20340;-64
2023/09/07 10:51:14;;;;;;;8.05;6.40;;;;;;;27.16;62.84;100217.25;5121841;27;20063;-64
2023/09/07 10:53:39;;;;;;;8.30;7.43;;;;;;;27.23;64.16;100214.31;5131601;27;20284;-64
2023/09/07 10:56:05;;;;;;;9.32;8.05;;;;;;;27.29;64.67;100203.22;5121520;27;20027;-65
2023/09/07 10:58:38;;;;;;;11.18;7.25;;;;;;;27.37;64.47;100218.22;5122467;27;20093;-64
2023/09/07 11:01:03;;;;;;;10.02;7.38;;;;;;;27.39;64.35;100207.09;5124836;27;20217;-64
2023/09/07 11:03:29;;;;;;;9.13;7.28;;;;;;;27.45;63.57;100206.03;5123811;27;20215;-64
2023/09/07 11:05:57;;;;;;;9.18;7.05;;;;;;;27.53;61.04;100203.66;5123295;27;20027;-64
2023/09/07 11:08:23;;;;;;;8.23;6.38;;;;;;;27.50;60.27;100195.19;5124215;27;20100;-65